Terminal Aerodrome Forecast
Issued by NWS Cleveland, OH

Home | Current Version | Previous Version | Text Only | Print | Product List | Glossary Off
Versions: 1 2 3 4 5 6 7 8 9 10 11 12 13 14 15 16 17 18

000
FTUS41 KCLE 151508 AAA
TAFMFD
TAF AMD
KMFD 151508Z 1515/1612 14008KT 6SM -SN SCT018 OVC035
      TEMPO 1515/1518 3SM -SN BKN018
     FM151800 17011KT 1SM -SN OVC015
     FM160200 21009KT 2SM -SN OVC009
     FM160300 22009KT P6SM OVC009
     FM160700 25009KT P6SM BKN010=

USA.gov is the U.S. government's official web portal to all federal, state and local government web resources and services.